sensor_id;sensor_type;location;lat;lon;timestamp;pressure;altitude;pressure_sealevel;temperature;humidity
12799;BME280;19250;42.646;26.980;2023-04-01T00:01:18;98258.84;;;12.38;100.00
12799;BME280;19250;42.646;26.980;2023-04-01T00:03:45;98256.19;;;12.59;100.00
12799;BME280;19250;42.646;26.980;2023-04-01T00:06:14;98257.44;;;11.91;100.00
12799;BME280;19250;42.646;26.980;2023-04-01T00:08:41;98249.44;;;12.27;100.00
12799;BME280;19250;42.646;26.980;2023-04-01T00:11:09;98250.03;;;11.64;100.00
12799;BME280;19250;42.646;26.980;2023-04-01T00:13:36;98251.16;;;11.84;100.00
12799;BME280;19250;42.646;26.980;2023-04-01T00:16:03;98252.31;;;11.38;100.00
12799;BME280;19250;42.646;26.980;2023-04-01T00:18:30;98251.81;;;11.86;100.00
12799;BME280;19250;42.646;26.980;2023-04-01T00:20:57;98252.50;;;12.24;100.00
12799;BME280;19250;42.646;26.980;2023-04-01T00:23:26;98250.31;;;11.69;100.00
12799;BME280;19250;42.646;26.980;2023-04-01T00:25:53;98236.78;;;11.04;100.00
12799;BME280;19250;42.646;26.980;2023-04-01T00:28:20;98247.88;;;11.16;100.00
12799;BME280;19250;42.646;26.980;2023-04-01T00:30:47;98250.31;;;11.03;100.00
12799;BME280;19250;42.646;26.980;2023-04-01T00:33:14;98246.63;;;11.56;100.00
12799;BME280;19250;42.646;26.980;2023-04-01T00:35:41;98236.03;;;11.62;100.00
12799;BME280;19250;42.646;26.980;2023-04-01T00:38:08;98232.53;;;12.06;100.00
12799;BME280;19250;42.646;26.980;2023-04-01T00:40:38;98220.13;;;11.83;100.00
12799;BME280;19250;42.646;26.980;2023-04-01T00:43:09;98227.97;;;11.70;100.00
12799;BME280;19250;42.646;26.980;2023-04-01T00:45:38;98221.88;;;11.91;100.00
12799;BME280;19250;42.646;26.980;2023-04-01T00:48:06;98219.56;;;11.88;100.00
12799;BME280;19250;42.646;26.980;2023-04-01T00:50:33;98219.84;;;11.78;100.00
12799;BME280;19250;42.646;26.980;2023-04-01T00:53:01;98216.91;;;11.88;100.00
12799;BME280;19250;42.646;26.980;2023-04-01T00:55:29;98223.81;;;11.68;100.00
12799;BME280;19250;42.646;26.980;2023-04-01T00:58:00;98217.56;;;11.75;100.00
12799;BME280;19250;42.646;26.980;2023-04-01T01:00:28;98215.97;;;10.62;100.00
12799;BME280;19250;42.646;26.980;2023-04-01T01:02:56;98204.25;;;10.49;100.00
12799;BME280;19250;42.646;26.980;2023-04-01T01:05:26;98195.03;;;9.98;100.00
12799;BME280;19250;42.646;26.980;2023-04-01T01:07:58;98198.72;;;9.89;100.00
12799;BME280;19250;42.646;26.980;2023-04-01T01:10:29;98185.28;;;10.66;100.00
12799;BME280;19250;42.646;26.980;2023-04-01T01:12:58;98181.22;;;10.93;100.00
12799;BME280;19250;42.646;26.980;2023-04-01T01:15:30;98177.84;;;11.14;100.00
12799;BME280;19250;42.646;26.980;2023-04-01T01:18:00;98175.09;;;10.70;100.00
12799;BME280;19250;42.646;26.980;2023-04-01T01:20:35;98179.88;;;11.12;100.00
12799;BME280;19250;42.646;26.980;2023-04-01T01:25:50;98193.63;;;10.10;100.00
12799;BME280;19250;42.646;26.980;2023-04-01T01:28:27;98186.41;;;10.26;100.00
12799;BME280;19250;42.646;26.980;2023-04-01T01:30:58;98185.88;;;10.31;100.00
12799;BME280;19250;42.646;26.980;2023-04-01T01:33:44;98188.66;;;10.07;100.00
12799;BME280;19250;42.646;26.980;2023-04-01T01:36:16;98181.09;;;10.26;100.00
12799;BME280;19250;42.646;26.980;2023-04-01T01:38:46;98177.91;;;10.91;100.00
12799;BME280;19250;42.646;26.980;2023-04-01T01:41:14;98183.00;;;11.01;100.00
12799;BME280;19250;42.646;26.980;2023-04-01T01:43:43;98183.19;;;10.76;100.00
12799;BME280;19250;42.646;26.980;2023-04-01T01:46:11;98178.41;;;10.49;100.00
12799;BME280;19250;42.646;26.980;2023-04-01T01:48:39;98169.06;;;10.90;100.00
12799;BME280;19250;42.646;26.980;2023-04-01T01:51:08;98171.16;;;10.80;100.00
12799;BME280;19250;42.646;26.980;2023-04-01T01:53:36;98172.13;;;11.02;100.00
12799;BME280;19250;42.646;26.980;2023-04-01T01:56:03;98162.53;;;10.78;100.00
12799;BME280;19250;42.646;26.980;2023-04-01T01:58:31;98163.25;;;10.72;100.00
12799;BME280;19250;42.646;26.980;2023-04-01T02:01:00;98161.78;;;10.47;100.00
12799;BME280;19250;42.646;26.980;2023-04-01T02:03:29;98173.50;;;10.38;100.00
12799;BME280;19250;42.646;26.980;2023-04-01T02:05:58;98166.56;;;10.29;100.00
12799;BME280;19250;42.646;26.980;2023-04-01T02:08:27;98160.75;;;10.25;100.00
12799;BME280;19250;42.646;26.980;2023-04-01T02:10:59;98148.06;;;10.73;100.00
12799;BME280;19250;42.646;26.980;2023-04-01T02:13:27;98161.66;;;11.01;100.00
12799;BME280;19250;42.646;26.980;2023-04-01T02:15:59;98160.63;;;10.19;100.00
12799;BME280;19250;42.646;26.980;2023-04-01T02:18:27;98162.13;;;9.91;100.00
12799;BME280;19250;42.646;26.980;2023-04-01T02:20:55;98151.56;;;9.74;100.00
12799;BME280;19250;42.646;26.980;2023-04-01T02:23:23;98154.91;;;10.53;100.00
12799;BME280;19250;42.646;26.980;2023-04-01T02:25:50;98152.63;;;10.27;100.00
12799;BME280;19250;42.646;26.980;2023-04-01T02:28:18;98133.72;;;10.74;100.00
12799;BME280;19250;42.646;26.980;2023-04-01T02:30:46;98132.16;;;10.79;100.00
12799;BME280;19250;42.646;26.980;2023-04-01T02:33:14;98138.63;;;10.85;100.00
12799;BME280;19250;42.646;26.980;2023-04-01T02:35:41;98140.38;;;10.92;100.00
12799;BME280;19250;42.646;26.980;2023-04-01T02:38:09;98139.09;;;10.88;100.00
12799;BME280;19250;42.646;26.980;2023-04-01T02:40:45;98145.78;;;10.84;100.00
12799;BME280;19250;42.646;26.980;2023-04-01T02:43:13;98140.94;;;10.88;100.00
12799;BME280;19250;42.646;26.980;2023-04-01T02:45:42;98133.66;;;10.97;100.00
12799;BME280;19250;42.646;26.980;2023-04-01T02:48:09;98130.38;;;10.95;100.00
12799;BME280;19250;42.646;26.980;2023-04-01T02:50:37;98132.53;;;10.76;100.00
12799;BME280;19250;42.646;26.980;2023-04-01T02:53:05;98139.38;;;10.93;100.00
12799;BME280;19250;42.646;26.980;2023-04-01T02:55:32;98147.72;;;10.90;100.00
12799;BME280;19250;42.646;26.980;2023-04-01T02:57:59;98148.84;;;10.96;100.00
12799;BME280;19250;42.646;26.980;2023-04-01T03:00:25;98147.28;;;10.64;100.00
12799;BME280;19250;42.646;26.980;2023-04-01T03:02:54;98138.25;;;10.88;100.00
12799;BME280;19250;42.646;26.980;2023-04-01T03:05:21;98142.41;;;10.90;100.00
12799;BME280;19250;42.646;26.980;2023-04-01T03:07:48;98135.19;;;10.76;100.00
12799;BME280;19250;42.646;26.980;2023-04-01T03:10:15;98143.03;;;10.92;100.00
12799;BME280;19250;42.646;26.980;2023-04-01T03:12:42;98135.59;;;10.88;100.00
12799;BME280;19250;42.646;26.980;2023-04-01T03:15:09;98132.25;;;10.71;100.00
12799;BME280;19250;42.646;26.980;2023-04-01T03:17:37;98128.13;;;10.83;100.00
12799;BME280;19250;42.646;26.980;2023-04-01T03:20:06;98124.59;;;10.68;100.00
12799;BME280;19250;42.646;26.980;2023-04-01T03:22:33;98124.94;;;10.51;100.00
12799;BME280;19250;42.646;26.980;2023-04-01T03:25:00;98114.44;;;10.49;100.00
12799;BME280;19250;42.646;26.980;2023-04-01T03:27:28;98111.50;;;10.44;100.00
12799;BME280;19250;42.646;26.980;2023-04-01T03:29:55;98111.38;;;10.60;100.00
12799;BME280;19250;42.646;26.980;2023-04-01T03:32:21;98099.03;;;10.59;100.00
12799;BME280;19250;42.646;26.980;2023-04-01T03:34:48;98099.59;;;10.55;100.00
12799;BME280;19250;42.646;26.980;2023-04-01T03:37:17;98099.44;;;10.33;100.00
12799;BME280;19250;42.646;26.980;2023-04-01T03:39:43;98100.25;;;10.34;100.00
12799;BME280;19250;42.646;26.980;2023-04-01T03:42:10;98096.91;;;9.87;100.00
12799;BME280;19250;42.646;26.980;2023-04-01T03:44:37;98096.66;;;10.27;100.00
12799;BME280;19250;42.646;26.980;2023-04-01T03:47:04;98099.13;;;10.51;100.00
12799;BME280;19250;42.646;26.980;2023-04-01T03:49:32;98108.56;;;9.55;100.00
12799;BME280;19250;42.646;26.980;2023-04-01T03:51:59;98111.84;;;9.34;100.00
12799;BME280;19250;42.646;26.980;2023-04-01T03:54:28;98110.38;;;9.62;100.00
12799;BME280;19250;42.646;26.980;2023-04-01T03:56:54;98110.56;;;10.14;100.00
12799;BME280;19250;42.646;26.980;2023-04-01T03:59:23;98104.06;;;10.17;100.00
12799;BME280;19250;42.646;26.980;2023-04-01T04:01:50;98109.91;;;10.35;100.00
12799;BME280;19250;42.646;26.980;2023-04-01T04:04:17;98100.69;;;10.23;100.00
12799;BME280;19250;42.646;26.980;2023-04-01T04:06:43;98100.97;;;10.65;100.00
12799;BME280;19250;42.646;26.980;2023-04-01T04:09:10;98105.94;;;10.68;100.00
12799;BME280;19250;42.646;26.980;2023-04-01T04:11:39;98110.09;;;10.33;100.00
12799;BME280;19250;42.646;26.980;2023-04-01T04:14:05;98099.63;;;10.69;100.00
12799;BME280;19250;42.646;26.980;2023-04-01T04:16:34;98097.91;;;11.06;100.00
12799;BME280;19250;42.646;26.980;2023-04-01T04:19:01;98104.31;;;11.26;100.00
12799;BME280;19250;42.646;26.980;2023-04-01T04:21:28;98106.63;;;11.29;100.00
12799;BME280;19250;42.646;26.980;2023-04-01T04:23:55;98105.59;;;11.44;100.00
12799;BME280;19250;42.646;26.980;2023-04-01T04:26:22;98097.63;;;11.01;100.00
12799;BME280;19250;42.646;26.980;2023-04-01T04:28:50;98110.97;;;11.15;100.00
12799;BME280;19250;42.646;26.980;2023-04-01T04:31:18;98112.13;;;10.83;100.00
12799;BME280;19250;42.646;26.980;2023-04-01T04:33:45;98104.63;;;11.31;100.00
12799;BME280;19250;42.646;26.980;2023-04-01T04:36:12;98108.19;;;11.38;100.00
12799;BME280;19250;42.646;26.980;2023-04-01T04:38:39;98097.03;;;11.34;100.00
12799;BME280;19250;42.646;26.980;2023-04-01T04:41:08;98105.06;;;11.20;100.00
12799;BME280;19250;42.646;26.980;2023-04-01T04:43:35;98101.63;;;11.55;100.00
12799;BME280;19250;42.646;26.980;2023-04-01T04:46:05;98101.44;;;11.71;100.00
12799;BME280;19250;42.646;26.980;2023-04-01T04:48:32;98094.72;;;11.75;100.00
12799;BME280;19250;42.646;26.980;2023-04-01T04:50:59;98095.34;;;11.77;100.00
12799;BME280;19250;42.646;26.980;2023-04-01T04:53:26;98094.66;;;11.90;100.00
12799;BME280;19250;42.646;26.980;2023-04-01T04:55:53;98097.63;;;11.95;100.00
12799;BME280;19250;42.646;26.980;2023-04-01T04:58:20;98093.97;;;12.02;100.00
12799;BME280;19250;42.646;26.980;2023-04-01T05:00:47;98098.19;;;12.12;100.00
12799;BME280;19250;42.646;26.980;2023-04-01T05:03:15;98091.19;;;12.11;100.00
12799;BME280;19250;42.646;26.980;2023-04-01T05:05:48;98087.03;;;12.08;100.00
12799;BME280;19250;42.646;26.980;2023-04-01T05:08:15;98086.78;;;11.82;100.00
12799;BME280;19250;42.646;26.980;2023-04-01T05:10:42;98082.03;;;12.41;100.00
12799;BME280;19250;42.646;26.980;2023-04-01T05:13:10;98071.06;;;12.36;100.00
12799;BME280;19250;42.646;26.980;2023-04-01T05:15:36;98081.34;;;12.60;100.00
12799;BME280;19250;42.646;26.980;2023-04-01T05:18:03;98071.09;;;12.64;100.00
12799;BME280;19250;42.646;26.980;2023-04-01T05:20:32;98066.34;;;12.59;100.00
12799;BME280;19250;42.646;26.980;2023-04-01T05:22:59;98066.28;;;12.80;100.00
12799;BME280;19250;42.646;26.980;2023-04-01T05:25:26;98064.03;;;13.12;100.00
12799;BME280;19250;42.646;26.980;2023-04-01T05:27:53;98064.78;;;13.05;100.00
12799;BME280;19250;42.646;26.980;2023-04-01T05:30:20;98068.88;;;13.29;100.00
12799;BME280;19250;42.646;26.980;2023-04-01T05:32:47;98055.41;;;13.16;100.00
12799;BME280;19250;42.646;26.980;2023-04-01T05:35:14;98042.22;;;13.15;100.00
12799;BME280;19250;42.646;26.980;2023-04-01T05:37:42;98045.94;;;13.14;100.00
12799;BME280;19250;42.646;26.980;2023-04-01T05:40:09;98040.75;;;13.53;100.00
12799;BME280;19250;42.646;26.980;2023-04-01T05:42:36;98032.69;;;13.46;100.00
12799;BME280;19250;42.646;26.980;2023-04-01T05:45:03;98038.06;;;13.53;100.00
12799;BME280;19250;42.646;26.980;2023-04-01T05:47:30;98044.50;;;13.72;100.00
12799;BME280;19250;42.646;26.980;2023-04-01T05:49:57;98052.28;;;13.53;100.00
12799;BME280;19250;42.646;26.980;2023-04-01T05:52:24;98057.69;;;13.67;100.00
12799;BME280;19250;42.646;26.980;2023-04-01T05:54:52;98061.28;;;14.00;100.00
12799;BME280;19250;42.646;26.980;2023-04-01T05:57:19;98058.72;;;13.66;100.00
12799;BME280;19250;42.646;26.980;2023-04-01T05:59:46;98060.81;;;13.83;100.00
12799;BME280;19250;42.646;26.980;2023-04-01T06:02:13;98058.84;;;14.18;100.00
12799;BME280;19250;42.646;26.980;2023-04-01T06:04:43;98057.78;;;14.19;100.00
12799;BME280;19250;42.646;26.980;2023-04-01T06:07:11;98056.19;;;14.38;100.00
12799;BME280;19250;42.646;26.980;2023-04-01T06:09:38;98065.47;;;14.75;97.31
12799;BME280;19250;42.646;26.980;2023-04-01T06:14:56;98055.75;;;14.87;95.92
12799;BME280;19250;42.646;26.980;2023-04-01T06:17:30;98055.97;;;14.59;96.64
12799;BME280;19250;42.646;26.980;2023-04-01T06:20:05;98057.19;;;14.89;96.87
12799;BME280;19250;42.646;26.980;2023-04-01T06:22:42;98056.81;;;14.79;97.77
12799;BME280;19250;42.646;26.980;2023-04-01T06:25:16;98057.25;;;15.47;94.47
12799;BME280;19250;42.646;26.980;2023-04-01T06:27:55;98052.25;;;15.57;93.08
12799;BME280;19250;42.646;26.980;2023-04-01T06:30:31;98035.84;;;15.14;95.08
12799;BME280;19250;42.646;26.980;2023-04-01T06:33:23;98046.13;;;15.81;94.77
12799;BME280;19250;42.646;26.980;2023-04-01T06:35:59;98049.72;;;16.38;91.84
12799;BME280;19250;42.646;26.980;2023-04-01T06:41:33;98049.44;;;15.90;96.48
12799;BME280;19250;42.646;26.980;2023-04-01T06:44:06;98038.44;;;14.63;100.00
12799;BME280;19250;42.646;26.980;2023-04-01T06:46:39;98042.56;;;14.65;100.00
12799;BME280;19250;42.646;26.980;2023-04-01T06:51:59;98047.34;;;15.47;100.00
12799;BME280;19250;42.646;26.980;2023-04-01T06:54:29;98052.81;;;15.08;100.00
12799;BME280;19250;42.646;26.980;2023-04-01T06:56:59;98052.91;;;15.90;100.00
12799;BME280;19250;42.646;26.980;2023-04-01T06:59:28;98048.34;;;16.28;99.12
12799;BME280;19250;42.646;26.980;2023-04-01T07:01:59;98047.59;;;17.14;91.41
12799;BME280;19250;42.646;26.980;2023-04-01T07:04:29;98046.06;;;16.81;93.34
12799;BME280;19250;42.646;26.980;2023-04-01T07:06:57;98053.28;;;17.78;89.09
12799;BME280;19250;42.646;26.980;2023-04-01T07:09:26;98052.31;;;17.73;88.50
12799;BME280;19250;42.646;26.980;2023-04-01T07:11:55;98044.78;;;16.84;94.50
12799;BME280;19250;42.646;26.980;2023-04-01T07:14:27;98025.06;;;15.78;100.00
12799;BME280;19250;42.646;26.980;2023-04-01T07:16:58;98028.59;;;16.10;100.00
12799;BME280;19250;42.646;26.980;2023-04-01T07:19:29;98023.03;;;15.22;100.00
12799;BME280;19250;42.646;26.980;2023-04-01T07:22:00;98012.75;;;15.13;100.00
12799;BME280;19250;42.646;26.980;2023-04-01T07:24:30;98011.09;;;16.25;100.00
12799;BME280;19250;42.646;26.980;2023-04-01T07:26:59;98001.78;;;16.53;100.00
12799;BME280;19250;42.646;26.980;2023-04-01T07:29:26;98004.06;;;16.49;100.00
12799;BME280;19250;42.646;26.980;2023-04-01T07:32:07;98000.00;;;15.46;100.00
12799;BME280;19250;42.646;26.980;2023-04-01T07:34:38;98001.06;;;15.83;100.00
12799;BME280;19250;42.646;26.980;2023-04-01T07:37:10;97986.25;;;16.05;100.00
12799;BME280;19250;42.646;26.980;2023-04-01T07:39:40;97993.50;;;16.29;100.00
12799;BME280;19250;42.646;26.980;2023-04-01T07:42:10;97991.44;;;16.56;100.00
12799;BME280;19250;42.646;26.980;2023-04-01T07:44:39;97996.69;;;16.69;100.00
12799;BME280;19250;42.646;26.980;2023-04-01T07:47:16;97988.06;;;16.11;100.00
12799;BME280;19250;42.646;26.980;2023-04-01T07:49:47;97993.66;;;16.34;100.00
12799;BME280;19250;42.646;26.980;2023-04-01T07:52:19;97997.44;;;16.02;100.00
12799;BME280;19250;42.646;26.980;2023-04-01T07:54:48;97989.75;;;15.74;100.00
12799;BME280;19250;42.646;26.980;2023-04-01T07:57:17;97992.34;;;16.19;100.00
12799;BME280;19250;42.646;26.980;2023-04-01T07:59:48;97987.34;;;16.22;100.00
12799;BME280;19250;42.646;26.980;2023-04-01T08:02:27;97989.84;;;17.76;98.28
12799;BME280;19250;42.646;26.980;2023-04-01T08:05:00;97986.34;;;18.28;92.17
12799;BME280;19250;42.646;26.980;2023-04-01T08:07:30;97994.38;;;17.46;95.66
12799;BME280;19250;42.646;26.980;2023-04-01T08:10:04;97991.84;;;17.14;97.04
12799;BME280;19250;42.646;26.980;2023-04-01T08:12:36;97977.69;;;16.82;100.00
12799;BME280;19250;42.646;26.980;2023-04-01T08:15:10;97973.88;;;16.47;100.00
12799;BME280;19250;42.646;26.980;2023-04-01T08:17:45;97961.91;;;17.04;100.00
12799;BME280;19250;42.646;26.980;2023-04-01T08:20:16;97960.69;;;17.55;92.95
12799;BME280;19250;42.646;26.980;2023-04-01T08:22:45;97951.88;;;17.29;92.80
12799;BME280;19250;42.646;26.980;2023-04-01T08:25:16;97953.69;;;16.81;93.86
12799;BME280;19250;42.646;26.980;2023-04-01T08:27:45;97956.91;;;16.90;94.89
12799;BME280;19250;42.646;26.980;2023-04-01T08:30:16;97949.94;;;17.00;93.82
12799;BME280;19250;42.646;26.980;2023-04-01T08:32:46;97947.19;;;16.70;94.39
12799;BME280;19250;42.646;26.980;2023-04-01T08:35:15;97942.75;;;16.58;92.82
12799;BME280;19250;42.646;26.980;2023-04-01T08:37:43;97943.13;;;16.61;95.12
12799;BME280;19250;42.646;26.980;2023-04-01T08:40:19;97934.56;;;17.37;90.97
12799;BME280;19250;42.646;26.980;2023-04-01T08:42:52;97940.34;;;17.22;89.14
12799;BME280;19250;42.646;26.980;2023-04-01T08:45:30;97939.56;;;16.85;90.65
12799;BME280;19250;42.646;26.980;2023-04-01T08:48:14;97939.84;;;16.96;88.42
12799;BME280;19250;42.646;26.980;2023-04-01T08:51:02;97937.38;;;16.58;88.43
12799;BME280;19250;42.646;26.980;2023-04-01T08:53:43;97934.31;;;17.57;85.44
12799;BME280;19250;42.646;26.980;2023-04-01T08:56:14;97940.78;;;17.37;88.61
12799;BME280;19250;42.646;26.980;2023-04-01T08:58:51;97923.78;;;18.20;84.87
12799;BME280;19250;42.646;26.980;2023-04-01T09:01:24;97929.94;;;18.62;82.28
12799;BME280;19250;42.646;26.980;2023-04-01T09:03:58;97925.88;;;18.06;86.74
12799;BME280;19250;42.646;26.980;2023-04-01T09:06:33;97911.88;;;17.86;88.67
12799;BME280;19250;42.646;26.980;2023-04-01T09:09:28;97901.63;;;18.64;83.06
12799;BME280;19250;42.646;26.980;2023-04-01T09:15:02;97893.19;;;20.52;72.68
12799;BME280;19250;42.646;26.980;2023-04-01T09:17:59;97889.38;;;18.85;80.24
12799;BME280;19250;42.646;26.980;2023-04-01T09:20:42;97881.66;;;18.42;85.28
12799;BME280;19250;42.646;26.980;2023-04-01T09:23:23;97868.41;;;18.64;84.35
12799;BME280;19250;42.646;26.980;2023-04-01T09:26:03;97877.06;;;18.89;83.93
12799;BME280;19250;42.646;26.980;2023-04-01T09:28:37;97869.59;;;19.08;82.64
12799;BME280;19250;42.646;26.980;2023-04-01T09:31:20;97861.66;;;19.74;80.15
12799;BME280;19250;42.646;26.980;2023-04-01T09:34:05;97855.31;;;20.19;77.24
12799;BME280;19250;42.646;26.980;2023-04-01T09:36:44;97867.00;;;19.69;78.98
12799;BME280;19250;42.646;26.980;2023-04-01T09:39:17;97862.69;;;19.28;81.71
12799;BME280;19250;42.646;26.980;2023-04-01T09:41:47;97853.84;;;19.44;82.37
12799;BME280;19250;42.646;26.980;2023-04-01T09:44:21;97852.56;;;19.80;81.26
12799;BME280;19250;42.646;26.980;2023-04-01T09:46:57;97852.09;;;21.20;73.35
12799;BME280;19250;42.646;26.980;2023-04-01T09:52:18;97844.84;;;21.26;72.35
12799;BME280;19250;42.646;26.980;2023-04-01T10:06:03;97836.00;;;19.93;79.69
12799;BME280;19250;42.646;26.980;2023-04-01T10:19:56;97796.34;;;19.37;81.16
12799;BME280;19250;42.646;26.980;2023-04-01T10:22:35;97797.97;;;19.50;81.51
12799;BME280;19250;42.646;26.980;2023-04-01T10:28:02;97798.53;;;19.24;84.46
12799;BME280;19250;42.646;26.980;2023-04-01T10:36:14;97790.25;;;18.45;88.70
12799;BME280;19250;42.646;26.980;2023-04-01T10:39:00;97776.38;;;18.65;87.50
12799;BME280;19250;42.646;26.980;2023-04-01T10:41:38;97775.75;;;19.03;85.24
12799;BME280;19250;42.646;26.980;2023-04-01T10:44:20;97767.91;;;19.18;85.42
12799;BME280;19250;42.646;26.980;2023-04-01T10:47:09;97762.50;;;19.18;84.18
12799;BME280;19250;42.646;26.980;2023-04-01T10:49:44;97758.31;;;19.27;85.38
12799;BME280;19250;42.646;26.980;2023-04-01T10:55:06;97743.84;;;19.67;82.62
12799;BME280;19250;42.646;26.980;2023-04-01T10:57:55;97737.31;;;19.29;82.18
12799;BME280;19250;42.646;26.980;2023-04-01T11:00:35;97727.13;;;19.36;82.42
12799;BME280;19250;42.646;26.980;2023-04-01T11:03:20;97724.84;;;19.28;82.05
12799;BME280;19250;42.646;26.980;2023-04-01T11:09:02;97713.63;;;18.75;85.43
12799;BME280;19250;42.646;26.980;2023-04-01T11:14:30;97706.47;;;19.80;81.53
12799;BME280;19250;42.646;26.980;2023-04-01T11:23:00;97703.84;;;19.02;85.80
12799;BME280;19250;42.646;26.980;2023-04-01T11:25:36;97687.00;;;18.95;86.57
12799;BME280;19250;42.646;26.980;2023-04-01T11:28:21;97691.91;;;19.15;85.36
12799;BME280;19250;42.646;26.980;2023-04-01T11:31:02;97672.66;;;19.11;86.07
12799;BME280;19250;42.646;26.980;2023-04-01T11:33:36;97670.63;;;19.51;83.88
12799;BME280;19250;42.646;26.980;2023-04-01T11:36:07;97677.69;;;19.52;82.75
12799;BME280;19250;42.646;26.980;2023-04-01T11:38:42;97671.28;;;19.42;83.78
12799;BME280;19250;42.646;26.980;2023-04-01T11:41:19;97665.38;;;19.28;84.92
12799;BME280;19250;42.646;26.980;2023-04-01T11:43:54;97670.38;;;19.03;83.62
12799;BME280;19250;42.646;26.980;2023-04-01T11:46:30;97661.38;;;18.97;83.84
12799;BME280;19250;42.646;26.980;2023-04-01T11:49:02;97667.50;;;18.93;84.77
12799;BME280;19250;42.646;26.980;2023-04-01T11:54:18;97657.00;;;18.96;84.46
12799;BME280;19250;42.646;26.980;2023-04-01T11:56:52;97658.25;;;19.06;84.15
12799;BME280;19250;42.646;26.980;2023-04-01T11:59:37;97657.19;;;19.23;84.64
12799;BME280;19250;42.646;26.980;2023-04-01T12:02:11;97650.31;;;19.32;82.86
12799;BME280;19250;42.646;26.980;2023-04-01T12:04:48;97644.09;;;19.32;83.67
12799;BME280;19250;42.646;26.980;2023-04-01T12:10:12;97627.91;;;18.98;83.91
12799;BME280;19250;42.646;26.980;2023-04-01T12:12:44;97625.41;;;18.97;85.70
12799;BME280;19250;42.646;26.980;2023-04-01T12:15:16;97621.06;;;18.96;85.49
12799;BME280;19250;42.646;26.980;2023-04-01T12:17:48;97627.22;;;19.41;83.73
12799;BME280;19250;42.646;26.980;2023-04-01T12:20:28;97624.50;;;19.25;83.85
12799;BME280;19250;42.646;26.980;2023-04-01T12:22:59;97616.88;;;19.38;84.53
12799;BME280;19250;42.646;26.980;2023-04-01T12:25:45;97616.22;;;19.31;83.25
12799;BME280;19250;42.646;26.980;2023-04-01T12:28:19;97603.16;;;19.62;82.26
12799;BME280;19250;42.646;26.980;2023-04-01T12:30:51;97598.59;;;19.84;80.67
12799;BME280;19250;42.646;26.980;2023-04-01T12:33:27;97595.69;;;19.69;82.68
12799;BME280;19250;42.646;26.980;2023-04-01T12:36:00;97594.09;;;19.73;83.07
12799;BME280;19250;42.646;26.980;2023-04-01T12:38:36;97585.75;;;19.52;80.65
12799;BME280;19250;42.646;26.980;2023-04-01T12:41:09;97578.78;;;19.57;79.95
12799;BME280;19250;42.646;26.980;2023-04-01T12:43:52;97571.78;;;19.61;79.88
12799;BME280;19250;42.646;26.980;2023-04-01T12:46:22;97566.19;;;19.89;81.04
12799;BME280;19250;42.646;26.980;2023-04-01T12:51:43;97548.91;;;19.46;83.41
12799;BME280;19250;42.646;26.980;2023-04-01T12:54:18;97571.66;;;19.34;87.05
12799;BME280;19250;42.646;26.980;2023-04-01T12:56:53;97555.69;;;19.49;87.46
12799;BME280;19250;42.646;26.980;2023-04-01T12:59:33;97563.66;;;19.22;87.52
12799;BME280;19250;42.646;26.980;2023-04-01T13:02:11;97561.88;;;19.11;88.66
12799;BME280;19250;42.646;26.980;2023-04-01T13:04:46;97562.13;;;19.10;89.67
12799;BME280;19250;42.646;26.980;2023-04-01T13:07:29;97559.31;;;19.21;88.77
12799;BME280;19250;42.646;26.980;2023-04-01T13:10:04;97555.41;;;19.12;89.32
12799;BME280;19250;42.646;26.980;2023-04-01T13:12:45;97557.88;;;18.97;90.75
12799;BME280;19250;42.646;26.980;2023-04-01T13:15:23;97553.53;;;18.96;90.25
12799;BME280;19250;42.646;26.980;2023-04-01T13:17:53;97546.91;;;19.20;89.09
12799;BME280;19250;42.646;26.980;2023-04-01T13:20:24;97549.97;;;19.29;87.57
12799;BME280;19250;42.646;26.980;2023-04-01T13:22:59;97545.53;;;19.01;88.51
12799;BME280;19250;42.646;26.980;2023-04-01T13:25:31;97546.03;;;18.98;87.65
12799;BME280;19250;42.646;26.980;2023-04-01T13:28:05;97550.72;;;19.24;86.20
12799;BME280;19250;42.646;26.980;2023-04-01T13:30:34;97557.66;;;19.37;84.71
12799;BME280;19250;42.646;26.980;2023-04-01T13:33:04;97549.81;;;19.79;82.09
12799;BME280;19250;42.646;26.980;2023-04-01T13:35:35;97546.00;;;19.75;81.45
12799;BME280;19250;42.646;26.980;2023-04-01T13:38:11;97540.72;;;19.41;83.99
12799;BME280;19250;42.646;26.980;2023-04-01T13:40:44;97544.22;;;19.64;82.58
12799;BME280;19250;42.646;26.980;2023-04-01T13:43:16;97548.75;;;19.80;79.30
12799;BME280;19250;42.646;26.980;2023-04-01T13:45:54;97560.66;;;19.19;81.77
12799;BME280;19250;42.646;26.980;2023-04-01T13:48:33;97558.94;;;19.13;84.60
12799;BME280;19250;42.646;26.980;2023-04-01T13:53:54;97551.88;;;19.28;83.17
12799;BME280;19250;42.646;26.980;2023-04-01T13:59:23;97542.16;;;21.09;74.41
12799;BME280;19250;42.646;26.980;2023-04-01T14:01:57;97546.13;;;21.02;72.48
12799;BME280;19250;42.646;26.980;2023-04-01T14:04:34;97534.59;;;19.29;81.22
12799;BME280;19250;42.646;26.980;2023-04-01T14:07:13;97539.50;;;18.77;85.32
12799;BME280;19250;42.646;26.980;2023-04-01T14:09:48;97537.16;;;19.02;86.53
12799;BME280;19250;42.646;26.980;2023-04-01T14:12:25;97520.34;;;19.55;82.96
12799;BME280;19250;42.646;26.980;2023-04-01T14:14:59;97507.50;;;18.86;87.13
12799;BME280;19250;42.646;26.980;2023-04-01T14:17:31;97501.97;;;19.14;87.01
12799;BME280;19250;42.646;26.980;2023-04-01T14:20:10;97495.91;;;20.52;79.44
12799;BME280;19250;42.646;26.980;2023-04-01T14:22:46;97489.16;;;20.23;79.70
12799;BME280;19250;42.646;26.980;2023-04-01T14:25:27;97502.03;;;20.38;78.39